Time;durP1;ratioP1;P1;durP2;ratioP2;P2;SDS_P1;SDS_P2;PMS_P1;PMS_P2;Temp;Humidity;BMP_temperature;BMP_pressure;BME280_temperature;BME280_humidity;BME280_pressure;Samples;Min_cycle;Max_cycle;Signal;HPM_P1;HPM_P2
2023/04/09 00:02:16;;;;;;;69.90;51.88;;;8.60;99.90;;;;;;4952288;28;20117;-74
2023/04/09 00:04:42;;;;;;;75.05;53.20;;;8.60;99.90;;;;;;4972065;28;20039;-74
2023/04/09 00:07:08;;;;;;;69.75;51.25;;;8.60;99.90;;;;;;4969032;28;20149;-73
2023/04/09 00:09:34;;;;;;;70.57;52.38;;;8.60;99.90;;;;;;4956650;28;20050;-72
2023/04/09 00:12:00;;;;;;;71.18;52.72;;;8.60;99.90;;;;;;4953805;28;20081;-72
2023/04/09 00:14:26;;;;;;;71.85;51.17;;;8.50;99.90;;;;;;4977614;28;20112;-74
2023/04/09 00:16:53;;;;;;;70.72;50.67;;;8.50;99.90;;;;;;4954214;28;20089;-74
2023/04/09 00:19:19;;;;;;;66.95;49.75;;;8.50;99.90;;;;;;4953748;28;20386;-74
2023/04/09 00:21:45;;;;;;;68.45;50.17;;;8.50;99.90;;;;;;4948798;28;20047;-74
2023/04/09 00:24:11;;;;;;;68.18;48.65;;;8.50;99.90;;;;;;4942076;28;20392;-74
2023/04/09 00:26:37;;;;;;;67.18;48.03;;;8.50;99.90;;;;;;4933544;28;20058;-74
2023/04/09 00:29:03;;;;;;;72.22;50.58;;;8.50;99.90;;;;;;4955052;28;20057;-74
2023/04/09 00:31:28;;;;;;;70.72;49.75;;;8.50;99.90;;;;;;4953386;28;20043;-74
2023/04/09 00:33:54;;;;;;;68.07;48.35;;;8.50;99.90;;;;;;4955793;28;20079;-74
2023/04/09 00:36:20;;;;;;;66.72;49.22;;;8.50;99.90;;;;;;4963154;28;20404;-74
2023/04/09 00:38:47;;;;;;;69.03;48.05;;;8.50;99.90;;;;;;4956098;28;20055;-74
2023/04/09 00:41:13;;;;;;;64.95;46.83;;;8.40;99.90;;;;;;4967201;28;20031;-74
2023/04/09 00:43:39;;;;;;;65.53;47.90;;;8.40;99.90;;;;;;4956927;28;20129;-74
2023/04/09 00:46:05;;;;;;;64.45;46.63;;;8.40;99.90;;;;;;4969292;28;20399;-74
2023/04/09 00:48:30;;;;;;;61.90;46.08;;;8.40;99.90;;;;;;4949670;28;20742;-74
2023/04/09 00:50:56;;;;;;;60.70;45.78;;;8.40;99.90;;;;;;4955442;28;20070;-74
2023/04/09 00:53:22;;;;;;;65.22;44.55;;;8.40;99.90;;;;;;4952436;28;20039;-74
2023/04/09 00:55:48;;;;;;;63.28;45.03;;;8.30;99.90;;;;;;4965088;28;20533;-74
2023/04/09 00:58:14;;;;;;;60.15;43.70;;;8.30;99.90;;;;;;4952764;28;20118;-73
2023/04/09 01:00:40;;;;;;;61.75;43.50;;;8.30;99.90;;;;;;4954697;28;20038;-74
2023/04/09 01:03:06;;;;;;;58.80;43.03;;;8.30;99.90;;;;;;4954183;28;20027;-75
2023/04/09 01:05:58;;;;;;;52.92;40.25;;;8.30;99.90;;;;;;4949586;28;20078;-74
2023/04/09 01:08:34;;;;;;;57.40;39.60;;;8.30;99.90;;;;;;4951595;28;20050;-74
2023/04/09 01:11:22;;;;;;;53.70;39.25;;;8.30;99.90;;;;;;4957207;28;20083;-73
2023/04/09 01:14:12;;;;;;;58.10;37.88;;;8.20;99.90;;;;;;4951440;28;20232;-74
2023/04/09 01:16:43;;;;;;;53.63;39.33;;;8.20;99.90;;;;;;4954896;28;20061;-73
2023/04/09 01:19:15;;;;;;;56.78;38.25;;;8.10;99.90;;;;;;4950224;28;20387;-74
2023/04/09 01:21:43;;;;;;;53.83;38.38;;;8.10;99.90;;;;;;4955163;28;20058;-72
2023/04/09 01:24:45;;;;;;;56.00;39.25;;;8.10;99.90;;;;;;4945791;28;20079;-74
2023/04/09 01:27:12;;;;;;;56.47;39.13;;;8.10;99.90;;;;;;4971081;28;20070;-74
2023/04/09 01:29:50;;;;;;;56.83;38.60;;;8.10;99.90;;;;;;4956377;28;20460;-75
2023/04/09 01:32:18;;;;;;;56.17;39.15;;;8.10;99.90;;;;;;4953379;28;20118;-73
2023/04/09 01:34:46;;;;;;;57.30;39.13;;;8.10;99.90;;;;;;4948205;28;20041;-73
2023/04/09 01:37:14;;;;;;;60.50;40.55;;;8.10;99.90;;;;;;4956073;28;20039;-74
2023/04/09 01:39:41;;;;;;;55.55;39.67;;;8.10;99.90;;;;;;4950491;28;20135;-74
2023/04/09 01:42:10;;;;;;;58.70;38.95;;;8.00;99.90;;;;;;4939477;28;20105;-74
2023/04/09 01:44:38;;;;;;;55.60;38.53;;;8.00;99.90;;;;;;4956185;28;20078;-73
2023/04/09 01:47:05;;;;;;;55.72;37.22;;;8.00;99.90;;;;;;4953892;28;20351;-74
2023/04/09 01:49:32;;;;;;;55.13;37.65;;;8.00;99.90;;;;;;4948966;28;20586;-74
2023/04/09 01:51:58;;;;;;;50.15;35.65;;;8.00;99.90;;;;;;4951161;28;20091;-74
2023/04/09 01:54:24;;;;;;;57.20;39.08;;;8.00;99.90;;;;;;4947325;28;20055;-73
2023/04/09 01:56:49;;;;;;;52.30;37.05;;;8.00;99.90;;;;;;4950044;28;20051;-74
2023/04/09 01:59:15;;;;;;;57.20;37.42;;;8.00;99.90;;;;;;4956003;28;20410;-73
2023/04/09 02:01:45;;;;;;;53.50;37.40;;;8.00;99.90;;;;;;4970734;28;20206;-74
2023/04/09 02:04:37;;;;;;;56.03;38.03;;;8.00;99.90;;;;;;4947884;28;20047;-74
2023/04/09 02:07:13;;;;;;;52.45;36.85;;;8.00;99.90;;;;;;4955632;28;20073;-74
2023/04/09 02:09:40;;;;;;;58.08;37.95;;;8.00;99.90;;;;;;4954928;28;20105;-74
2023/04/09 02:12:11;;;;;;;52.78;37.67;;;8.00;99.90;;;;;;4954683;28;20043;-73
2023/04/09 02:14:38;;;;;;;56.80;39.58;;;8.00;99.90;;;;;;4952907;28;20130;-74
2023/04/09 02:17:04;;;;;;;52.95;38.05;;;7.90;99.90;;;;;;4956084;28;20047;-74
2023/04/09 02:19:41;;;;;;;56.25;38.35;;;7.90;99.90;;;;;;4954451;28;20043;-73
2023/04/09 02:22:07;;;;;;;61.88;40.50;;;7.90;99.90;;;;;;4956794;28;20103;-72
2023/04/09 02:24:32;;;;;;;56.80;38.47;;;7.90;99.90;;;;;;4949738;28;20106;-75
2023/04/09 02:26:58;;;;;;;59.08;39.83;;;7.90;99.90;;;;;;4952983;28;20043;-73
2023/04/09 02:29:24;;;;;;;55.88;38.00;;;7.90;99.90;;;;;;4954310;28;20061;-75
2023/04/09 02:31:51;;;;;;;56.42;39.25;;;7.90;99.90;;;;;;4965562;28;20043;-75
2023/04/09 02:34:18;;;;;;;53.58;39.03;;;7.90;99.90;;;;;;4954549;28;20046;-72
2023/04/09 02:36:44;;;;;;;57.28;40.45;;;7.90;99.90;;;;;;4951430;28;20399;-73
2023/04/09 02:39:09;;;;;;;50.95;35.65;;;7.90;99.90;;;;;;4953522;28;20043;-74
2023/04/09 02:41:35;;;;;;;54.72;38.30;;;7.90;99.90;;;;;;4954366;28;20560;-73
2023/04/09 02:44:01;;;;;;;54.17;38.65;;;7.90;99.90;;;;;;4947843;28;20368;-73
2023/04/09 02:46:26;;;;;;;54.47;36.78;;;7.90;99.90;;;;;;4951391;28;20051;-73
2023/04/09 02:48:52;;;;;;;57.65;39.45;;;7.90;99.90;;;;;;4953039;28;20480;-73
2023/04/09 02:51:19;;;;;;;57.53;39.25;;;7.90;99.90;;;;;;4956972;28;20058;-74
2023/04/09 02:53:45;;;;;;;59.13;40.42;;;7.90;99.90;;;;;;4951507;28;20101;-73
2023/04/09 02:56:11;;;;;;;55.03;39.50;;;7.90;99.90;;;;;;4956962;28;20070;-73
2023/04/09 02:58:37;;;;;;;56.72;39.33;;;7.90;99.90;;;;;;4956476;28;20057;-73
2023/04/09 03:01:02;;;;;;;54.00;39.10;;;7.90;99.90;;;;;;4953429;28;20038;-74
2023/04/09 03:03:29;;;;;;;56.20;39.85;;;7.80;99.90;;;;;;4960059;28;20517;-74
2023/04/09 03:05:55;;;;;;;58.47;38.55;;;7.80;99.90;;;;;;4956779;28;20097;-73
2023/04/09 03:08:21;;;;;;;60.10;39.67;;;7.80;99.90;;;;;;4960330;28;20077;-72
2023/04/09 03:10:47;;;;;;;55.40;37.85;;;7.80;99.90;;;;;;4952945;28;20047;-73
2023/04/09 03:13:13;;;;;;;54.83;38.00;;;7.80;99.90;;;;;;4961614;28;20053;-73
2023/04/09 03:15:38;;;;;;;55.28;38.50;;;7.80;99.90;;;;;;4970349;28;20111;-74
2023/04/09 03:18:04;;;;;;;54.45;38.58;;;7.80;99.90;;;;;;4952907;28;20046;-74
2023/04/09 03:20:30;;;;;;;56.67;38.33;;;7.80;99.90;;;;;;4974158;28;20758;-73
2023/04/09 03:22:55;;;;;;;54.17;37.15;;;7.80;99.90;;;;;;4949688;28;20058;-74
2023/04/09 03:25:21;;;;;;;56.40;38.90;;;7.80;99.90;;;;;;4957823;28;20079;-74
2023/04/09 03:27:47;;;;;;;55.47;38.55;;;7.80;99.90;;;;;;4956276;28;20130;-73
2023/04/09 03:30:13;;;;;;;53.55;39.53;;;7.80;99.90;;;;;;4964733;28;20091;-73
2023/04/09 03:32:39;;;;;;;57.28;39.22;;;7.80;99.90;;;;;;4955472;28;20491;-73
2023/04/09 03:35:05;;;;;;;56.17;37.85;;;7.70;99.90;;;;;;4954827;28;20043;-74
2023/04/09 03:37:30;;;;;;;55.67;38.05;;;7.70;99.90;;;;;;4959567;28;20035;-73
2023/04/09 03:39:56;;;;;;;55.22;39.38;;;7.70;99.90;;;;;;4948928;28;20039;-73
2023/04/09 03:42:22;;;;;;;50.83;37.55;;;7.70;99.90;;;;;;4967759;28;20073;-74
2023/04/09 03:44:47;;;;;;;55.80;39.47;;;7.70;99.90;;;;;;4955240;28;20097;-74
2023/04/09 03:47:13;;;;;;;56.78;39.58;;;7.70;99.90;;;;;;4973266;28;20096;-73
2023/04/09 03:49:39;;;;;;;58.85;39.05;;;7.70;99.90;;;;;;4967604;28;20039;-73
2023/04/09 03:52:08;;;;;;;55.90;36.47;;;7.70;99.90;;;;;;4959734;28;20054;-73
2023/04/09 03:54:33;;;;;;;56.17;37.17;;;7.70;99.90;;;;;;4960141;28;20356;-73
2023/04/09 03:57:00;;;;;;;55.00;38.05;;;7.70;99.90;;;;;;4956431;28;20047;-73
2023/04/09 03:59:26;;;;;;;48.85;36.40;;;7.60;99.90;;;;;;4972307;28;20424;-73
2023/04/09 04:01:51;;;;;;;54.85;36.90;;;7.70;99.90;;;;;;4958767;28;20093;-72
2023/04/09 04:04:17;;;;;;;48.65;35.70;;;7.60;99.90;;;;;;4985471;28;20039;-74
2023/04/09 04:06:43;;;;;;;54.55;37.53;;;7.60;99.90;;;;;;4950471;28;20522;-74
2023/04/09 04:09:08;;;;;;;54.90;36.78;;;7.60;99.90;;;;;;4953172;28;20043;-73
2023/04/09 04:11:34;;;;;;;54.88;36.13;;;7.60;99.90;;;;;;4959010;28;20042;-73
2023/04/09 04:14:00;;;;;;;50.17;34.85;;;7.60;99.90;;;;;;4956351;28;20062;-71
2023/04/09 04:16:26;;;;;;;49.83;34.28;;;7.60;99.90;;;;;;4958299;28;20134;-73
2023/04/09 04:18:52;;;;;;;54.90;35.95;;;7.60;99.90;;;;;;4951786;28;20047;-72
2023/04/09 04:21:18;;;;;;;53.70;36.58;;;7.60;99.90;;;;;;4971657;28;20082;-73
2023/04/09 04:23:44;;;;;;;51.53;34.92;;;7.60;99.90;;;;;;4975194;28;20043;-73
2023/04/09 04:26:10;;;;;;;51.20;36.75;;;7.60;99.90;;;;;;4949567;28;20038;-73
2023/04/09 04:28:37;;;;;;;53.60;36.50;;;7.60;99.90;;;;;;4952697;28;20054;-72
2023/04/09 04:31:10;;;;;;;47.58;34.47;;;7.60;99.90;;;;;;4940069;28;20121;-72
2023/04/09 04:33:40;;;;;;;52.47;35.95;;;7.60;99.90;;;;;;4955056;28;20487;-73
2023/04/09 04:36:11;;;;;;;48.00;34.45;;;7.60;99.90;;;;;;4953906;28;20047;-72
2023/04/09 04:38:37;;;;;;;52.20;35.65;;;7.60;99.90;;;;;;4954198;28;20038;-72
2023/04/09 04:41:03;;;;;;;50.67;34.78;;;7.60;99.90;;;;;;4960608;28;20031;-74
2023/04/09 04:43:29;;;;;;;48.75;33.75;;;7.50;99.90;;;;;;4972505;28;20351;-73
2023/04/09 04:45:55;;;;;;;49.80;34.47;;;7.60;99.90;;;;;;4952483;28;20047;-73
2023/04/09 04:48:21;;;;;;;47.50;34.95;;;7.60;99.90;;;;;;4953669;28;20039;-72
2023/04/09 04:50:57;;;;;;;44.13;32.88;;;7.60;99.90;;;;;;4957373;28;20043;-74
2023/04/09 04:53:23;;;;;;;50.42;33.28;;;7.50;99.90;;;;;;4952832;28;20058;-73
2023/04/09 04:55:49;;;;;;;45.78;33.10;;;7.60;99.90;;;;;;4953213;28;20074;-73
2023/04/09 04:58:15;;;;;;;50.80;33.75;;;7.60;99.90;;;;;;4955407;28;20295;-73
2023/04/09 05:00:41;;;;;;;44.47;32.85;;;7.60;99.90;;;;;;4954571;28;20173;-73
2023/04/09 05:03:06;;;;;;;42.65;31.13;;;7.60;99.90;;;;;;4970004;28;20054;-74
2023/04/09 05:05:32;;;;;;;43.20;32.00;;;7.60;99.90;;;;;;4989859;28;20462;-74
2023/04/09 05:07:58;;;;;;;43.00;32.22;;;7.60;99.90;;;;;;4973549;28;20039;-73
2023/04/09 05:10:23;;;;;;;44.80;31.50;;;7.60;99.90;;;;;;4960569;28;20082;-73
2023/04/09 05:12:49;;;;;;;41.92;31.73;;;7.60;99.90;;;;;;4971314;28;20035;-74
2023/04/09 05:15:15;;;;;;;43.53;32.08;;;7.60;99.90;;;;;;4970701;28;20117;-73
2023/04/09 05:17:44;;;;;;;43.00;32.70;;;7.60;99.90;;;;;;4956870;28;20440;-74
2023/04/09 05:20:11;;;;;;;44.25;33.42;;;7.70;99.90;;;;;;4956481;28;20039;-73
2023/04/09 05:22:36;;;;;;;44.30;32.55;;;7.70;99.90;;;;;;4957478;28;20061;-74
2023/04/09 05:25:02;;;;;;;43.40;32.65;;;7.60;99.90;;;;;;4958473;28;20040;-73
2023/04/09 05:27:28;;;;;;;42.47;33.08;;;7.70;99.90;;;;;;4954691;28;20073;-73
2023/04/09 05:29:54;;;;;;;41.88;30.58;;;7.70;99.90;;;;;;4960936;28;20046;-72
2023/04/09 05:32:20;;;;;;;42.35;32.20;;;7.70;99.90;;;;;;4953088;28;20133;-74
2023/04/09 05:34:46;;;;;;;43.08;32.25;;;7.70;99.90;;;;;;4956569;28;20491;-74
2023/04/09 05:37:12;;;;;;;41.58;31.30;;;7.70;99.90;;;;;;4955483;28;20390;-74
2023/04/09 05:39:37;;;;;;;43.05;32.53;;;7.70;99.90;;;;;;4956273;28;20039;-72
2023/04/09 05:42:03;;;;;;;42.90;32.35;;;7.70;99.90;;;;;;4952340;28;20031;-74
2023/04/09 05:44:29;;;;;;;38.88;31.80;;;7.70;99.90;;;;;;4938641;28;20110;-74
2023/04/09 05:46:55;;;;;;;43.45;32.20;;;7.70;99.90;;;;;;4952813;28;20039;-74
2023/04/09 05:49:21;;;;;;;39.10;30.25;;;7.70;99.90;;;;;;4953361;28;20495;-73
2023/04/09 05:51:48;;;;;;;42.20;32.10;;;7.80;99.90;;;;;;4955970;28;20042;-74
2023/04/09 05:54:14;;;;;;;44.55;32.47;;;7.80;99.90;;;;;;4943356;28;20070;-74
2023/04/09 05:56:41;;;;;;;43.72;32.78;;;7.80;99.90;;;;;;4954939;28;20476;-74
2023/04/09 05:59:07;;;;;;;43.25;31.48;;;7.80;99.90;;;;;;4955163;28;20050;-74
2023/04/09 06:01:33;;;;;;;39.38;30.65;;;7.80;99.90;;;;;;4968962;28;20039;-75
2023/04/09 06:03:59;;;;;;;45.67;33.88;;;7.80;99.90;;;;;;4953682;28;20035;-74
2023/04/09 06:06:25;;;;;;;44.67;32.83;;;7.80;99.90;;;;;;4956177;28;20448;-73
2023/04/09 06:08:50;;;;;;;43.20;31.77;;;7.80;99.90;;;;;;4972842;28;20486;-74
2023/04/09 06:11:16;;;;;;;39.15;30.92;;;7.80;99.90;;;;;;4956785;28;20102;-73
2023/04/09 06:13:42;;;;;;;38.65;29.80;;;7.80;99.90;;;;;;4969091;28;20543;-74
2023/04/09 06:16:09;;;;;;;37.45;30.27;;;7.90;99.90;;;;;;4952969;28;20050;-75
2023/04/09 06:18:36;;;;;;;39.85;30.58;;;7.90;99.90;;;;;;4950102;28;20103;-75
2023/04/09 06:21:06;;;;;;;41.15;32.92;;;7.80;99.90;;;;;;4968777;28;20365;-75
2023/04/09 06:23:33;;;;;;;43.47;32.00;;;7.90;99.90;;;;;;4952443;28;20114;-74
2023/04/09 06:26:00;;;;;;;40.70;31.17;;;7.80;99.90;;;;;;4956992;28;20070;-75
2023/04/09 06:28:27;;;;;;;43.70;33.13;;;7.80;99.90;;;;;;4974581;28;20057;-74
2023/04/09 06:30:53;;;;;;;40.83;32.25;;;7.90;99.90;;;;;;4961938;28;20561;-75
2023/04/09 06:33:20;;;;;;;40.08;31.13;;;7.90;99.90;;;;;;4958468;28;20064;-74
2023/04/09 06:35:46;;;;;;;39.30;30.77;;;7.90;99.90;;;;;;4961150;28;20047;-74
2023/04/09 06:38:11;;;;;;;44.42;32.75;;;7.90;99.90;;;;;;4945969;28;20146;-74
2023/04/09 06:40:38;;;;;;;39.20;31.10;;;8.00;99.90;;;;;;4963908;28;20134;-74
2023/04/09 06:43:04;;;;;;;39.67;29.98;;;8.00;99.90;;;;;;4959775;28;20098;-74
2023/04/09 06:45:31;;;;;;;42.83;31.15;;;8.00;99.90;;;;;;4959769;28;20043;-74
2023/04/09 06:47:58;;;;;;;39.58;31.45;;;8.00;99.90;;;;;;4947049;28;20097;-74
2023/04/09 06:50:23;;;;;;;39.25;30.92;;;8.00;99.90;;;;;;4960663;28;20062;-75
2023/04/09 06:52:50;;;;;;;41.30;32.28;;;8.10;99.90;;;;;;4962018;28;20479;-75
2023/04/09 06:55:16;;;;;;;39.25;31.30;;;8.10;99.90;;;;;;4960646;28;20047;-75
2023/04/09 06:57:42;;;;;;;41.05;30.90;;;8.10;99.90;;;;;;4958658;28;20043;-75
2023/04/09 07:00:09;;;;;;;39.47;31.55;;;8.10;99.90;;;;;;4954971;28;20053;-74
2023/04/09 07:02:35;;;;;;;41.17;30.73;;;8.10;99.90;;;;;;4946650;28;20036;-74
2023/04/09 07:05:02;;;;;;;43.88;31.77;;;8.10;99.90;;;;;;4957804;28;20101;-74
2023/04/09 07:07:28;;;;;;;43.58;31.33;;;8.10;99.90;;;;;;4955961;28;20046;-75
2023/04/09 07:09:54;;;;;;;46.33;31.52;;;8.10;99.90;;;;;;4960094;28;20066;-74
2023/04/09 07:12:32;;;;;;;40.97;31.90;;;8.20;99.90;;;;;;4957467;28;20047;-74
2023/04/09 07:15:01;;;;;;;40.83;31.58;;;8.20;99.90;;;;;;4954959;28;20055;-74
2023/04/09 07:17:28;;;;;;;39.15;30.02;;;8.20;99.90;;;;;;4960573;28;20074;-74
2023/04/09 07:19:53;;;;;;;195.68;119.82;;;8.20;99.90;;;;;;4991275;28;20054;-75
2023/04/09 07:22:24;;;;;;;139.30;85.97;;;8.30;99.90;;;;;;4958747;28;20050;-74
2023/04/09 07:24:52;;;;;;;126.70;82.50;;;8.30;99.90;;;;;;4959821;28;20031;-73
2023/04/09 07:27:23;;;;;;;57.70;40.80;;;8.30;99.90;;;;;;4953106;28;20046;-74
2023/04/09 07:29:49;;;;;;;49.47;35.75;;;8.30;99.90;;;;;;4955086;28;20048;-75
2023/04/09 07:32:15;;;;;;;41.90;31.67;;;8.40;99.90;;;;;;4959969;28;20036;-74
2023/04/09 07:34:42;;;;;;;42.92;32.42;;;8.40;99.90;;;;;;4958694;28;20083;-74
2023/04/09 07:37:08;;;;;;;44.70;33.42;;;8.40;99.90;;;;;;4952767;28;20051;-74
2023/04/09 07:39:33;;;;;;;44.03;33.80;;;8.40;99.90;;;;;;4952286;28;20414;-75
2023/04/09 07:42:03;;;;;;;52.10;39.80;;;8.50;99.90;;;;;;4950776;28;20039;-74
2023/04/09 07:44:33;;;;;;;43.33;33.25;;;8.50;99.90;;;;;;4946726;29;20043;-73
2023/04/09 07:47:00;;;;;;;41.67;33.60;;;8.60;99.90;;;;;;4947935;28;20433;-75
2023/04/09 07:49:25;;;;;;;41.20;32.63;;;8.60;99.90;;;;;;4949759;28;20047;-75
2023/04/09 07:51:51;;;;;;;45.17;33.30;;;8.70;99.90;;;;;;4950585;28;20034;-75
2023/04/09 07:54:18;;;;;;;43.97;33.35;;;8.80;99.90;;;;;;4954523;28;20059;-75
2023/04/09 07:56:44;;;;;;;41.97;32.20;;;8.80;99.90;;;;;;4946633;28;20112;-73
2023/04/09 07:59:10;;;;;;;42.42;31.67;;;8.90;99.90;;;;;;4958091;28;20097;-72
2023/04/09 08:01:35;;;;;;;45.20;32.75;;;9.00;99.90;;;;;;4952992;28;20065;-71
2023/04/09 08:04:01;;;;;;;43.40;32.08;;;9.00;99.90;;;;;;4957327;28;20046;-73
2023/04/09 08:06:27;;;;;;;44.58;32.95;;;9.10;99.90;;;;;;4968647;28;20042;-73
2023/04/09 08:08:52;;;;;;;47.30;32.95;;;9.20;99.90;;;;;;4954882;28;20132;-73
2023/04/09 08:11:23;;;;;;;45.40;31.95;;;9.20;99.90;;;;;;4956878;28;20049;-73
2023/04/09 08:13:51;;;;;;;42.60;32.70;;;9.20;99.90;;;;;;4968809;28;20531;-74
2023/04/09 08:16:16;;;;;;;40.78;31.40;;;9.20;99.90;;;;;;4947765;28;20047;-74
2023/04/09 08:18:42;;;;;;;44.17;33.63;;;9.30;99.90;;;;;;4938285;28;20396;-74
2023/04/09 08:21:08;;;;;;;46.65;32.38;;;9.30;99.90;;;;;;4952074;28;20167;-75
2023/04/09 08:23:33;;;;;;;43.47;33.45;;;9.30;99.90;;;;;;4951453;28;20515;-74
2023/04/09 08:25:59;;;;;;;45.55;33.58;;;9.40;99.90;;;;;;4946953;28;20118;-74
2023/04/09 08:28:25;;;;;;;44.25;33.28;;;9.50;99.90;;;;;;4955506;28;20047;-75
2023/04/09 08:30:51;;;;;;;40.53;32.70;;;9.60;99.90;;;;;;4954211;28;20043;-75
2023/04/09 08:33:17;;;;;;;44.00;33.92;;;9.80;99.90;;;;;;4948852;28;20050;-74
2023/04/09 08:35:43;;;;;;;42.45;33.03;;;9.90;99.90;;;;;;4954050;28;20459;-75
2023/04/09 08:38:08;;;;;;;44.13;33.67;;;10.00;99.90;;;;;;4947846;28;20071;-74
2023/04/09 08:40:35;;;;;;;41.35;31.88;;;10.10;99.90;;;;;;4946996;28;20318;-75
2023/04/09 08:43:05;;;;;;;44.08;33.90;;;10.10;99.90;;;;;;4943377;28;20499;-74
2023/04/09 08:45:30;;;;;;;43.25;33.15;;;10.20;99.90;;;;;;4947628;28;20053;-75
2023/04/09 08:47:58;;;;;;;41.60;32.33;;;10.20;99.90;;;;;;4950928;28;20043;-75
2023/04/09 08:50:27;;;;;;;43.83;33.72;;;10.30;99.90;;;;;;4941652;28;20050;-74
2023/04/09 08:52:54;;;;;;;39.85;30.40;;;10.40;99.90;;;;;;4946264;28;20137;-75
2023/04/09 08:55:21;;;;;;;37.40;29.10;;;10.40;99.90;;;;;;4970115;28;20043;-76
2023/04/09 08:57:46;;;;;;;38.30;29.70;;;10.50;99.90;;;;;;4952077;28;20061;-76
2023/04/09 09:00:12;;;;;;;39.63;30.80;;;10.60;99.90;;;;;;4944512;28;20051;-75
2023/04/09 09:02:58;;;;;;;39.72;31.40;;;10.70;99.90;;;;;;4958825;28;20460;-77
2023/04/09 09:05:38;;;;;;;38.70;30.92;;;11.20;99.90;;;;;;4944780;28;20126;-74
2023/04/09 09:08:05;;;;;;;37.72;30.30;;;12.00;99.90;;;;;;4947269;28;20050;-75
2023/04/09 09:10:44;;;;;;;38.65;31.13;;;12.30;99.90;;;;;;4949339;28;20507;-75
2023/04/09 09:13:16;;;;;;;38.35;31.25;;;12.50;99.90;;;;;;4950219;28;20130;-75
2023/04/09 09:15:43;;;;;;;34.08;28.35;;;13.00;99.90;;;;;;4949326;28;20123;-76
2023/04/09 09:18:09;;;;;;;34.47;28.15;;;12.90;99.90;;;;;;4948427;28;20043;-77
2023/04/09 09:20:34;;;;;;;35.22;28.60;;;13.00;99.90;;;;;;4945324;28;20042;-76
2023/04/09 09:23:01;;;;;;;35.78;29.38;;;13.10;99.90;;;;;;4943788;28;20081;-76
2023/04/09 09:25:26;;;;;;;35.00;29.10;;;13.30;99.90;;;;;;4965038;28;20042;-76
2023/04/09 09:27:53;;;;;;;34.10;28.35;;;13.60;99.90;;;;;;4963927;28;20035;-76
2023/04/09 09:30:24;;;;;;;30.67;27.27;;;14.20;99.90;;;;;;4945725;28;20051;-76
2023/04/09 09:33:04;;;;;;;32.05;28.00;;;14.40;99.90;;;;;;4950550;28;20121;-75
2023/04/09 09:35:30;;;;;;;33.53;27.55;;;14.30;99.90;;;;;;4965696;28;20057;-76
2023/04/09 09:38:03;;;;;;;31.70;27.95;;;14.20;99.90;;;;;;4949164;28;20467;-76
2023/04/09 09:40:29;;;;;;;31.98;27.65;;;14.20;99.90;;;;;;4949285;28;20133;-76
2023/04/09 09:42:58;;;;;;;32.28;27.70;;;14.60;99.90;;;;;;4948415;28;20126;-76
2023/04/09 09:45:25;;;;;;;31.23;27.63;;;15.00;99.90;;;;;;4935264;28;20108;-76
2023/04/09 09:47:52;;;;;;;34.03;30.33;;;15.00;99.90;;;;;;4948571;28;20395;-76
2023/04/09 09:50:19;;;;;;;30.85;27.50;;;14.90;99.90;;;;;;4944658;28;20638;-76
2023/04/09 09:52:46;;;;;;;32.58;28.30;;;14.90;99.90;;;;;;4945137;28;20121;-76
2023/04/09 09:55:16;;;;;;;32.83;28.15;;;14.80;99.90;;;;;;4948803;28;20078;-76
2023/04/09 09:57:44;;;;;;;31.50;28.05;;;15.30;99.90;;;;;;4958879;28;20055;-77
2023/04/09 10:00:12;;;;;;;31.08;27.70;;;16.10;99.90;;;;;;4942575;28;20399;-76
2023/04/09 10:02:50;;;;;;;30.10;26.75;;;16.70;99.90;;;;;;4960092;28;20050;-77
2023/04/09 10:05:15;;;;;;;31.75;28.55;;;17.30;99.90;;;;;;4949610;28;20503;-77
2023/04/09 10:07:42;;;;;;;30.58;27.38;;;17.40;99.90;;;;;;4949459;28;20047;-76
2023/04/09 10:10:08;;;;;;;30.40;26.90;;;17.30;99.90;;;;;;4954927;28;20039;-78
2023/04/09 10:12:35;;;;;;;32.17;28.92;;;17.60;99.90;;;;;;4954786;28;20105;-78
2023/04/09 10:15:04;;;;;;;29.67;26.48;;;17.20;99.90;;;;;;4966355;28;20585;-76
2023/04/09 10:17:31;;;;;;;29.60;26.50;;;17.10;99.90;;;;;;4953256;28;20376;-77
2023/04/09 10:20:21;;;;;;;30.38;27.38;;;17.20;99.90;;;;;;4966063;28;20038;-77
2023/04/09 10:22:49;;;;;;;30.52;27.42;;;17.20;99.90;;;;;;4946986;28;20087;-76
2023/04/09 10:25:15;;;;;;;29.40;26.50;;;17.00;99.90;;;;;;4949909;28;20051;-78
2023/04/09 10:27:47;;;;;;;29.67;26.58;;;16.30;99.90;;;;;;4948762;28;20125;-78
2023/04/09 10:30:33;;;;;;;29.73;26.73;;;15.90;99.90;;;;;;4952814;28;20122;-78
2023/04/09 10:33:13;;;;;;;29.40;26.20;;;15.80;99.90;;;;;;4952892;28;20041;-78
2023/04/09 10:35:39;;;;;;;27.90;25.00;;;16.00;99.90;;;;;;4947955;28;20632;-76
2023/04/09 10:38:09;;;;;;;26.45;23.85;;;16.30;99.90;;;;;;4936153;29;20057;-77
2023/04/09 10:40:46;;;;;;;26.55;23.25;;;16.80;99.90;;;;;;4940206;28;20732;-78
2023/04/09 10:43:13;;;;;;;26.55;23.75;;;17.00;99.90;;;;;;4949925;28;20043;-77
2023/04/09 10:45:40;;;;;;;25.52;22.92;;;17.00;99.90;;;;;;4965946;28;20057;-77
2023/04/09 10:48:11;;;;;;;26.95;24.15;;;16.90;99.90;;;;;;4945270;28;20094;-79
2023/04/09 10:50:38;;;;;;;28.10;25.20;;;16.80;99.90;;;;;;4946234;28;20054;-77
2023/04/09 10:53:04;;;;;;;26.17;23.52;;;17.00;99.90;;;;;;4948731;28;20661;-78
2023/04/09 10:55:31;;;;;;;27.27;24.48;;;17.30;99.90;;;;;;4945775;28;20587;-78
2023/04/09 10:57:57;;;;;;;24.70;22.25;;;17.70;99.90;;;;;;4948057;28;20059;-79
2023/04/09 11:00:23;;;;;;;24.98;22.48;;;18.20;99.90;;;;;;4947093;28;20069;-79
2023/04/09 11:03:05;;;;;;;24.95;22.45;;;18.30;99.90;;;;;;4947143;28;20452;-78
2023/04/09 11:05:37;;;;;;;24.67;22.15;;;18.70;99.90;;;;;;4964256;28;20391;-79
2023/04/09 11:08:13;;;;;;;25.17;22.63;;;18.80;99.90;;;;;;4943984;28;20086;-78
2023/04/09 11:10:44;;;;;;;24.65;22.20;;;18.60;99.90;;;;;;4949502;28;20105;-79
2023/04/09 11:13:15;;;;;;;24.48;22.08;;;18.00;99.30;;;;;;4952019;28;20424;-80
2023/04/09 11:15:41;;;;;;;24.92;22.42;;;17.50;99.90;;;;;;4952419;28;20462;-80
2023/04/09 11:18:08;;;;;;;26.20;23.60;;;17.30;99.90;;;;;;4947180;28;20042;-79
2023/04/09 11:20:35;;;;;;;24.38;21.98;;;17.00;99.90;;;;;;4950221;28;20578;-80
2023/04/09 11:23:01;;;;;;;23.88;21.25;;;17.00;99.90;;;;;;4946399;28;20047;-79
2023/04/09 11:25:29;;;;;;;22.80;20.50;;;17.00;99.90;;;;;;4944778;28;20047;-78
2023/04/09 11:27:54;;;;;;;23.25;20.83;;;16.90;99.90;;;;;;4950785;28;20074;-79
2023/04/09 11:30:20;;;;;;;24.75;22.17;;;17.00;99.90;;;;;;4948925;28;20043;-79
2023/04/09 11:32:47;;;;;;;24.00;21.50;;;17.50;99.90;;;;;;4951538;28;20053;-78
2023/04/09 11:35:15;;;;;;;22.05;19.85;;;17.80;99.90;;;;;;4954768;28;20564;-78
2023/04/09 11:37:42;;;;;;;21.20;18.67;;;17.80;99.80;;;;;;4946777;28;20070;-78
2023/04/09 11:40:21;;;;;;;22.00;19.77;;;17.70;98.90;;;;;;4949810;28;20094;-77
2023/04/09 11:42:49;;;;;;;23.50;21.02;;;17.40;98.90;;;;;;4965769;28;20057;-78
2023/04/09 11:45:16;;;;;;;22.95;20.63;;;17.40;99.60;;;;;;4944441;28;20406;-79
2023/04/09 11:47:43;;;;;;;22.80;20.60;;;17.50;99.90;;;;;;4949273;28;20404;-79
2023/04/09 11:50:10;;;;;;;20.70;18.52;;;18.00;99.90;;;;;;4949734;28;20047;-79
2023/04/09 11:52:37;;;;;;;20.98;18.67;;;18.20;99.40;;;;;;4946059;28;20074;-81
2023/04/09 11:55:06;;;;;;;20.20;17.98;;;18.20;98.30;;;;;;4950831;28;20035;-80
2023/04/09 11:57:46;;;;;;;20.88;18.88;;;17.70;98.00;;;;;;4965615;28;20136;-79
2023/04/09 12:00:16;;;;;;;20.45;18.30;;;17.50;98.30;;;;;;4946521;28;20515;-77
2023/04/09 12:02:47;;;;;;;20.27;18.27;;;17.90;98.40;;;;;;4947318;28;20101;-80
2023/04/09 12:05:24;;;;;;;20.67;18.58;;;18.40;97.90;;;;;;4933633;28;20513;-77
2023/04/09 12:07:51;;;;;;;22.00;19.67;;;18.60;96.90;;;;;;4936033;28;20376;-78
2023/04/09 12:10:17;;;;;;;19.48;17.48;;;18.20;96.20;;;;;;4948239;28;20384;-80
2023/04/09 12:12:45;;;;;;;21.88;19.67;;;18.00;96.60;;;;;;4962776;28;20067;-78
2023/04/09 12:15:20;;;;;;;22.73;20.42;;;17.80;96.30;;;;;;4944210;28;20043;-79
2023/04/09 12:17:57;;;;;;;22.05;19.70;;;17.30;96.70;;;;;;4968043;28;20043;-79
2023/04/09 12:20:27;;;;;;;21.00;18.80;;;16.80;96.50;;;;;;4969289;28;20039;-79
2023/04/09 12:22:54;;;;;;;24.23;20.80;;;17.20;97.50;;;;;;4940953;28;20066;-79
2023/04/09 12:25:19;;;;;;;22.65;20.25;;;18.00;97.70;;;;;;4949089;28;20030;-78
2023/04/09 12:27:45;;;;;;;22.30;19.98;;;18.80;97.10;;;;;;4960366;28;20049;-79
2023/04/09 12:30:11;;;;;;;22.05;19.67;;;18.90;95.30;;;;;;4948680;28;20051;-79
2023/04/09 12:32:37;;;;;;;22.83;20.48;;;18.60;94.10;;;;;;4951341;28;20054;-80
2023/04/09 12:35:03;;;;;;;23.52;21.13;;;18.00;94.90;;;;;;4946040;28;20046;-79
2023/04/09 12:37:29;;;;;;;23.75;20.92;;;17.70;95.10;;;;;;4948908;28;20049;-80